Time;durP1;ratioP1;P1;durP2;ratioP2;P2;SDS_P1;SDS_P2;PMS_P1;PMS_P2;Temp;Humidity;BMP_temperature;BMP_pressure;BME280_temperature;BME280_humidity;BME280_pressure;Samples;Min_cycle;Max_cycle;Signal;HPM_P1;HPM_P2
2023/01/06 00:00:22;;;;;;;;;;;;;;;5.93;100.00;100209.59;5035172;28;19924;-89
2023/01/06 00:02:48;;;;;;;;;;;;;;;5.95;100.00;100207.81;5036366;28;20330;-89
2023/01/06 00:05:13;;;;;;;;;;;;;;;5.95;100.00;100210.44;5039572;28;19971;-87
2023/01/06 00:07:38;;;;;;;;;;;;;;;5.92;100.00;100199.97;5018415;28;20387;-86
2023/01/06 00:10:04;;;;;;;;;;;;;;;6.01;100.00;100204.22;5036150;28;19921;-88
2023/01/06 00:12:29;;;;;;;;;;;;;;;5.99;100.00;100206.03;5035505;28;20467;-89
2023/01/06 00:14:55;;;;;;;;;;;;;;;5.92;100.00;100210.50;5026003;28;20287;-89
2023/01/06 00:17:20;;;;;;;;;;;;;;;5.92;100.00;100204.34;5035985;28;19971;-87
2023/01/06 00:19:45;;;;;;;;;;;;;;;5.93;100.00;100208.72;5035989;28;19916;-89
2023/01/06 00:22:10;;;;;;;;;;;;;;;5.93;100.00;100204.34;5021366;28;19920;-86
2023/01/06 00:24:36;;;;;;;;;;;;;;;5.89;100.00;100199.16;5018457;28;19921;-87
2023/01/06 00:27:01;;;;;;;;;;;;;;;5.86;100.00;100202.72;5035532;28;20346;-89
2023/01/06 00:29:27;;;;;;;;;;;;;;;5.85;100.00;100195.72;5019234;28;19917;-87
2023/01/06 00:31:52;;;;;;;;;;;;;;;5.87;100.00;100191.31;5033088;28;20391;-87
2023/01/06 00:34:18;;;;;;;;;;;;;;;5.81;100.00;100191.41;5044492;28;19963;-87
2023/01/06 08:30:47;;;;;;;;;;;;;;;5.37;100.00;100175.44;5038104;28;20314;-85
2023/01/06 08:33:13;;;;;;;;;;;;;;;5.39;100.00;100178.03;5024372;28;19921;-90
2023/01/06 08:35:39;;;;;;;;;;;;;;;5.37;100.00;100175.44;5025759;28;20335;-87
2023/01/06 08:38:04;;;;;;;;;;;;;;;5.40;100.00;100174.53;5042690;28;19963;-87
2023/01/06 08:40:29;;;;;;;;;;;;;;;5.41;100.00;100176.28;5041131;28;19921;-88
2023/01/06 08:42:54;;;;;;;;;;;;;;;5.41;100.00;100177.16;5035477;28;19925;-93
2023/01/06 08:45:20;;;;;;;;;;;;;;;5.44;100.00;100174.47;5041640;28;19928;-87
2023/01/06 08:47:45;;;;;;;;;;;;;;;5.42;100.00;100176.22;5044431;28;19925;-89
2023/01/06 08:50:10;;;;;;;;;;;;;;;5.39;100.00;100165.78;5044041;28;20073;-88
2023/01/06 08:52:35;;;;;;;;;;;;;;;5.43;100.00;100170.09;5057921;28;19928;-87
2023/01/06 08:55:01;;;;;;;;;;;;;;;5.49;100.00;100173.50;5055433;28;19924;-87
2023/01/06 08:57:26;;;;;;;;;;;;;;;5.48;100.00;100175.28;5054054;28;19931;-87
2023/01/06 08:59:51;;;;;;;;;;;;;;;5.43;100.00;100182.38;5046166;28;19972;-87
2023/01/06 09:02:16;;;;;;;;;;;;;;;5.48;100.00;100175.28;5041518;28;19927;-83
2023/01/06 09:04:42;;;;;;;;;;;;;;;5.47;100.00;100176.16;5041777;28;19921;-88
2023/01/06 09:07:07;;;;;;;;;;;;;;;5.48;100.00;100177.91;5028587;28;19929;-87
2023/01/06 09:09:32;;;;;;;;;;;;;;;5.46;100.00;100174.44;5038279;28;19925;-84
2023/01/06 09:11:58;;;;;;;;;;;;;;;5.51;100.00;100175.22;5029194;28;19931;-87
2023/01/06 09:14:23;;;;;;;;;;;;;;;5.42;100.00;100178.84;5043719;28;20413;-90
2023/01/06 09:16:48;;;;;;;;;;;;;;;5.49;100.00;100184.91;5041510;28;19920;-93
2023/01/06 09:19:15;;;;;;;;;;;;;;;5.45;100.00;100188.47;5017179;28;19917;-85
2023/01/06 09:21:41;;;;;;;;;;;;;;;5.41;100.00;100197.31;5034926;28;20025;-84
2023/01/06 09:24:08;;;;;;;;;;;;;;;5.42;100.00;100197.25;5035028;28;19924;-85
2023/01/06 09:26:33;;;;;;;;;;;;;;;5.42;100.00;100191.16;5016607;28;19959;-84
2023/01/06 09:28:59;;;;;;;;;;;;;;;5.41;100.00;100199.94;5032644;28;19976;-87
2023/01/06 09:31:25;;;;;;;;;;;;;;;5.39;100.00;100193.81;5034789;28;19917;-84
2023/01/06 09:33:50;;;;;;;;;;;;;;;5.47;100.00;100191.94;5016907;28;19917;-84
2023/01/06 09:36:16;;;;;;;;;;;;;;;5.44;100.00;100187.63;5016996;28;19917;-88
2023/01/06 09:38:41;;;;;;;;;;;;;;;5.41;100.00;100189.44;5034574;28;19917;-86
2023/01/06 09:41:24;;;;;;;;;;;;;;;5.38;100.00;100194.72;5034449;28;19917;-89
2023/01/06 09:43:52;;;;;;;;;;;;;;;5.41;100.00;100197.31;5033113;28;19917;-89
2023/01/06 09:46:20;;;;;;;;;;;;;;;5.36;100.00;100193.84;5034803;28;19917;-86
2023/01/06 09:48:52;;;;;;;;;;;;;;;5.33;100.00;100201.78;5039215;28;19921;-91
2023/01/06 09:51:19;;;;;;;;;;;;;;;5.42;100.00;100204.28;5036239;28;19921;-86
2023/01/06 09:53:49;;;;;;;;;;;;;;;5.43;100.00;100220.03;5034426;28;19917;-87
2023/01/06 09:56:16;;;;;;;;;;;;;;;5.41;100.00;100215.72;5034468;28;20008;-86
2023/01/06 09:58:48;;;;;;;;;;;;;;;5.46;100.00;100219.13;5032818;28;19917;-86
2023/01/06 10:01:17;;;;;;;;;;;;;;;5.48;100.00;100217.34;5034565;28;20265;-84
2023/01/06 10:03:44;;;;;;;;;;;;;;;5.40;100.00;100221.84;5034251;28;19917;-91
2023/01/06 10:06:19;;;;;;;;;;;;;;;5.44;100.00;100219.16;5034110;28;19917;-83
2023/01/06 10:09:03;;;;;;;;;;;;;;;5.45;100.00;100220.88;5033928;28;19917;-88
2023/01/06 10:11:34;;;;;;;;;;;;;;;5.41;100.00;100210.44;5034051;28;19917;-91
2023/01/06 10:14:00;;;;;;;;;;;;;;;5.40;100.00;100214.81;5032647;28;19987;-88
2023/01/06 10:16:34;;;;;;;;;;;;;;;5.45;100.00;100209.50;5033886;28;20372;-83
2023/01/06 10:19:14;;;;;;;;;;;;;;;5.45;100.00;100220.00;5033792;28;19935;-85
2023/01/06 10:21:46;;;;;;;;;;;;;;;5.41;100.00;100221.81;5033867;28;19917;-85
2023/01/06 10:24:21;;;;;;;;;;;;;;;5.41;100.00;100228.84;5033859;28;20430;-84
2023/01/06 10:26:52;;;;;;;;;;;;;;;5.42;100.00;100225.31;5033685;28;19917;-84
2023/01/06 10:29:18;;;;;;;;;;;;;;;5.38;100.00;100224.50;5032127;28;20004;-85
2023/01/06 10:31:44;;;;;;;;;;;;;;;5.25;100.00;100230.81;5033654;28;20020;-85
2023/01/06 10:34:16;;;;;;;;;;;;;;;5.39;100.00;100212.22;5033670;28;20350;-87
2023/01/06 10:36:44;;;;;;;;;;;;;;;5.38;100.00;100215.75;5015844;28;20363;-85
2023/01/06 10:39:14;;;;;;;;;;;;;;;5.34;100.00;100214.91;5033360;28;19923;-87
2023/01/06 10:41:45;;;;;;;;;;;;;;;5.34;100.00;100200.91;5033119;28;19971;-86
2023/01/06 10:44:12;;;;;;;;;;;;;;;5.45;100.00;100196.34;5014428;28;19951;-86
2023/01/06 10:46:37;;;;;;;;;;;;;;;5.42;100.00;100199.03;5015860;28;19917;-89
2023/01/06 10:49:04;;;;;;;;;;;;;;;5.41;100.00;100197.31;5015561;28;20395;-84
2023/01/06 10:51:37;;;;;;;;;;;;;;;5.38;100.00;100198.22;5033518;28;20372;-84
2023/01/06 10:54:07;;;;;;;;;;;;;;;5.44;100.00;100199.88;5033282;28;19913;-88
2023/01/06 10:56:34;;;;;;;;;;;;;;;5.39;100.00;100199.97;5015550;28;20008;-85
2023/01/06 10:59:07;;;;;;;;;;;;;;;5.45;100.00;100209.50;5031972;28;19920;-86
2023/01/06 11:01:33;;;;;;;;;;;;;;;5.15;100.00;100202.94;5033296;28;20372;-84
2023/01/06 11:04:08;;;;;;;;;;;;;;;5.16;100.00;100202.03;5033154;28;19921;-90
2023/01/06 11:06:34;;;;;;;;;;;;;;;5.16;100.00;100197.66;5015680;28;20018;-86
2023/01/06 11:09:06;;;;;;;;;;;;;;;5.14;100.00;100198.56;5032901;28;19917;-84
2023/01/06 11:11:31;;;;;;;;;;;;;;;5.08;100.00;100194.28;5033180;28;19957;-85
2023/01/06 11:14:01;;;;;;;;;;;;;;;5.11;100.00;100199.47;5031777;28;20400;-91
2023/01/06 11:16:28;;;;;;;;;;;;;;;5.16;100.00;100191.53;5033061;28;20458;-86
2023/01/06 11:18:55;;;;;;;;;;;;;;;5.12;100.00;100189.84;5033045;28;19936;-86
2023/01/06 11:21:21;;;;;;;;;;;;;;;5.14;100.00;100188.03;5032967;28;19917;-83
2023/01/06 11:23:47;;;;;;;;;;;;;;;5.21;100.00;100187.94;5033117;28;19923;-84
2023/01/06 11:26:14;;;;;;;;;;;;;;;5.22;100.00;100181.81;5032985;28;19921;-92
2023/01/06 11:28:40;;;;;;;;;;;;;;;5.20;100.00;100183.59;5031478;28;19955;-88
2023/01/06 11:31:08;;;;;;;;;;;;;;;5.28;100.00;100186.97;5033175;28;19925;-89
2023/01/06 11:33:35;;;;;;;;;;;;;;;5.28;100.00;100176.47;5033013;28;19928;-88
2023/01/06 11:36:08;;;;;;;;;;;;;;;5.23;100.00;100186.19;5032798;28;20364;-85
2023/01/06 11:38:40;;;;;;;;;;;;;;;5.25;100.00;100180.91;5032979;28;19968;-86
2023/01/06 11:41:07;;;;;;;;;;;;;;;5.26;100.00;100173.00;5015143;28;19913;-86
2023/01/06 11:43:32;;;;;;;;;;;;;;;5.21;100.00;100168.69;5031620;28;19921;-88
2023/01/06 11:46:03;;;;;;;;;;;;;;;5.25;100.00;100160.75;5032841;28;19959;-84
2023/01/06 11:49:07;;;;;;;;;;;;;;;5.22;100.00;100163.41;5032686;28;19971;-90
2023/01/06 11:51:52;;;;;;;;;;;;;;;5.19;100.00;100166.09;4953956;28;19966;-90
2023/01/06 11:54:21;;;;;;;;;;;;;;;5.24;100.00;100156.38;4936938;29;19919;-84
2023/01/06 11:57:11;;;;;;;;;;;;;;;5.26;100.00;100148.47;5005914;28;19964;-85
2023/01/06 11:59:44;;;;;;;;;;;;;;;5.21;100.00;100152.94;5035152;28;20372;-91
2023/01/06 12:02:32;;;;;;;;;;;;;;;5.22;100.00;100155.53;5036303;28;19940;-85
2023/01/06 12:05:00;;;;;;;;;;;;;;;5.25;100.00;100152.84;5008009;28;20364;-86
2023/01/06 12:07:32;;;;;;;;;;;;;;;5.23;100.00;100152.03;5036263;28;20000;-84
2023/01/06 12:10:02;;;;;;;;;;;;;;;5.27;100.00;100158.94;5036304;28;20434;-83
2023/01/06 12:12:27;;;;;;;;;;;;;;;5.22;100.00;100155.53;5035069;28;19921;-84
2023/01/06 12:14:53;;;;;;;;;;;;;;;5.26;100.00;100151.09;5036137;28;20302;-84
2023/01/06 12:17:36;;;;;;;;;;;;;;;5.27;100.00;100143.19;5018601;28;20167;-90
2023/01/06 12:20:04;;;;;;;;;;;;;;;5.28;100.00;100141.41;5036318;28;19921;-91
2023/01/06 12:22:29;;;;;;;;;;;;;;;5.16;100.00;100145.09;5036135;28;19921;-84
2023/01/06 12:24:56;;;;;;;;;;;;;;;5.22;100.00;100142.41;5036251;28;19917;-85
2023/01/06 12:27:42;;;;;;;;;;;;;;;5.23;100.00;100146.78;5035226;28;19917;-88
2023/01/06 12:30:14;;;;;;;;;;;;;;;5.24;100.00;100135.34;5035517;28;19927;-87
2023/01/06 12:32:41;;;;;;;;;;;;;;;5.31;100.00;100133.50;5018220;28;20393;-87
2023/01/06 12:35:10;;;;;;;;;;;;;;;5.32;100.00;100134.38;5036116;28;19917;-91
2023/01/06 12:37:41;;;;;;;;;;;;;;;5.27;100.00;100135.31;5018225;28;20011;-85
2023/01/06 12:40:25;;;;;;;;;;;;;;;5.33;100.00;100136.09;5035910;28;20391;-88
2023/01/06 12:43:09;;;;;;;;;;;;;;;5.31;100.00;100130.84;5034574;28;19951;-85
2023/01/06 12:45:43;;;;;;;;;;;;;;;5.33;100.00;100126.47;5018034;28;19917;-84
2023/01/06 12:48:37;;;;;;;;;;;;;;;5.37;100.00;100125.50;5035644;28;19924;-84
2023/01/06 12:51:07;;;;;;;;;;;;;;;5.37;100.00;100122.03;5017873;28;19971;-86
2023/01/06 12:53:40;;;;;;;;;;;;;;;5.35;100.00;100129.94;5034799;28;20120;-87
2023/01/06 12:56:24;;;;;;;;;;;;;;;5.40;100.00;100128.09;5035354;28;19917;-87
2023/01/06 12:58:55;;;;;;;;;;;;;;;5.41;100.00;100128.97;5034078;28;19918;-84
2023/01/06 13:01:26;;;;;;;;;;;;;;;5.36;100.00;100131.69;5035389;28;19917;-89
2023/01/06 13:04:02;;;;;;;;;;;;;;;5.42;100.00;100138.56;5034524;28;19917;-91
2023/01/06 13:06:27;;;;;;;;;;;;;;;5.39;100.00;100136.00;5035350;28;19924;-87
2023/01/06 13:08:55;;;;;;;;;;;;;;;5.34;100.00;100133.44;5035173;28;19920;-85
2023/01/06 13:11:20;;;;;;;;;;;;;;;5.41;100.00;100139.50;5035066;28;19917;-88
2023/01/06 13:14:05;;;;;;;;;;;;;;;5.38;100.00;100137.78;5033850;28;19923;-83
2023/01/06 13:16:39;;;;;;;;;;;;;;;5.36;100.00;100136.03;5035106;28;19917;-88
2023/01/06 13:19:23;;;;;;;;;;;;;;;5.40;100.00;100137.75;5034930;28;19917;-89
2023/01/06 13:21:51;;;;;;;;;;;;;;;5.39;100.00;100139.50;5035172;28;19928;-85
2023/01/06 13:24:26;;;;;;;;;;;;;;;5.40;100.00;100137.75;5035136;28;20376;-89
2023/01/06 13:27:10;;;;;;;;;;;;;;;5.43;100.00;100138.56;5034972;28;19917;-87
2023/01/06 13:29:38;;;;;;;;;;;;;;;5.39;100.00;100141.25;5015694;28;19921;-86
2023/01/06 13:32:22;;;;;;;;;;;;;;;5.44;100.00;100131.53;5034860;28;19932;-90
2023/01/06 13:35:06;;;;;;;;;;;;;;;5.45;100.00;100128.03;5034734;28;19917;-91
2023/01/06 13:37:37;;;;;;;;;;;;;;;5.42;100.00;100131.56;5034694;28;19985;-89
2023/01/06 13:40:10;;;;;;;;;;;;;;;5.41;100.00;100124.59;5016911;28;19917;-87
2023/01/06 13:42:49;;;;;;;;;;;;;;;5.41;100.00;100119.31;5033504;28;19917;-85
2023/01/06 13:45:23;;;;;;;;;;;;;;;5.39;100.00;100121.13;5034318;28;20015;-87
2023/01/06 13:47:49;;;;;;;;;;;;;;;5.41;100.00;100119.31;5034540;28;20364;-85
2023/01/06 13:50:17;;;;;;;;;;;;;;;5.42;100.00;100120.19;5034297;28;19917;-86
2023/01/06 13:52:43;;;;;;;;;;;;;;;5.38;100.00;100123.78;5034349;28;19918;-85
2023/01/06 13:55:17;;;;;;;;;;;;;;;5.42;100.00;100125.44;5034592;28;20334;-86
2023/01/06 13:57:42;;;;;;;;;;;;;;;5.42;100.00;100128.06;5015325;28;20547;-89
2023/01/06 14:00:34;;;;;;;;;;;;;;;5.40;100.00;100120.22;5034117;28;20051;-88
2023/01/06 14:03:01;;;;;;;;;;;;;;;5.42;100.00;100125.44;5012595;28;20020;-89
2023/01/06 14:05:29;;;;;;;;;;;;;;;5.38;100.00;100124.63;5034141;28;19924;-84
2023/01/06 14:08:01;;;;;;;;;;;;;;;5.40;100.00;100127.22;5034156;28;20011;-84
2023/01/06 14:10:26;;;;;;;;;;;;;;;5.41;100.00;100127.22;5016144;28;19925;-89
2023/01/06 14:12:52;;;;;;;;;;;;;;;5.43;100.00;100124.56;5032753;28;19917;-86
2023/01/06 14:15:20;;;;;;;;;;;;;;;5.42;100.00;100128.06;5033817;28;20280;-85
2023/01/06 14:17:47;;;;;;;;;;;;;;;5.39;100.00;100138.63;5016383;28;19975;-88
2023/01/06 14:20:27;;;;;;;;;;;;;;;5.40;100.00;100133.34;5033799;28;19939;-91
2023/01/06 14:23:04;;;;;;;;;;;;;;;5.39;100.00;100130.75;5033759;28;20047;-85
2023/01/06 14:25:32;;;;;;;;;;;;;;;5.44;100.00;100128.91;5016124;28;20384;-84
2023/01/06 14:27:57;;;;;;;;;;;;;;;5.43;100.00;100132.44;5032316;28;20051;-87
2023/01/06 14:30:22;;;;;;;;;;;;;;;5.41;100.00;100132.47;5033510;28;20024;-85
2023/01/06 14:32:47;;;;;;;;;;;;;;;5.42;100.00;100131.56;5033783;28;20015;-87
2023/01/06 14:35:14;;;;;;;;;;;;;;;5.40;100.00;100125.47;5033800;28;19921;-87
2023/01/06 14:37:46;;;;;;;;;;;;;;;5.47;100.00;100136.75;5033700;28;19967;-89
2023/01/06 14:40:16;;;;;;;;;;;;;;;5.50;100.00;100134.06;5033571;28;19948;-89
2023/01/06 14:42:42;;;;;;;;;;;;;;;5.49;100.00;100136.72;5014775;28;20402;-88
2023/01/06 14:45:15;;;;;;;;;;;;;;;5.46;100.00;100137.66;5033486;28;19924;-86
2023/01/06 14:47:46;;;;;;;;;;;;;;;5.45;100.00;100130.66;5015842;28;19916;-88
2023/01/06 14:50:14;;;;;;;;;;;;;;;5.42;100.00;100135.94;5033235;28;19971;-85
2023/01/06 14:52:52;;;;;;;;;;;;;;;5.47;100.00;100128.84;5033495;28;19996;-86
2023/01/06 14:55:19;;;;;;;;;;;;;;;5.45;100.00;100125.38;5015722;28;19917;-91
2023/01/06 14:57:44;;;;;;;;;;;;;;;5.42;100.00;100126.28;5014384;28;19921;-87
2023/01/06 15:00:09;;;;;;;;;;;;;;;5.43;100.00;100135.94;5015692;28;19964;-85
2023/01/06 15:02:36;;;;;;;;;;;;;;;5.43;100.00;100125.41;5015661;28;19963;-91
2023/01/06 15:05:01;;;;;;;;;;;;;;;5.40;100.00;100127.22;5015641;28;19975;-87
2023/01/06 15:07:27;;;;;;;;;;;;;;;5.47;100.00;100134.09;5015540;28;19960;-86
2023/01/06 15:09:52;;;;;;;;;;;;;;;5.44;100.00;100134.16;5015604;28;19948;-86
2023/01/06 15:12:30;;;;;;;;;;;;;;;5.45;100.00;100130.66;5009324;28;19964;-84
2023/01/06 15:14:56;;;;;;;;;;;;;;;5.45;100.00;100128.03;5033014;28;19913;-85
2023/01/06 15:17:21;;;;;;;;;;;;;;;5.51;100.00;100134.94;5015217;28;20436;-90
2023/01/06 15:19:48;;;;;;;;;;;;;;;5.53;100.00;100135.78;5033108;28;19913;-91
2023/01/06 15:22:22;;;;;;;;;;;;;;;5.49;100.00;100127.09;5015475;28;20372;-93
2023/01/06 15:24:47;;;;;;;;;;;;;;;5.47;100.00;100136.75;5033034;28;20339;-92
2023/01/06 15:27:14;;;;;;;;;;;;;;;5.51;100.00;100135.81;5017912;28;19921;-91
2023/01/06 15:29:50;;;;;;;;;;;;;;;5.50;100.00;100136.69;5014258;28;20381;-91
2023/01/06 15:32:15;;;;;;;;;;;;;;;5.50;100.00;100133.19;5016028;28;20020;-92
2023/01/06 15:34:43;;;;;;;;;;;;;;;5.48;100.00;100135.84;5016184;28;20391;-92
2023/01/06 15:37:14;;;;;;;;;;;;;;;5.50;100.00;100128.81;5017363;28;19924;-89
2023/01/06 15:39:41;;;;;;;;;;;;;;;5.49;100.00;100124.47;5015909;28;20040;-91
2023/01/06 15:42:07;;;;;;;;;;;;;;;5.51;100.00;100129.69;5017080;28;19972;-90
2023/01/06 15:44:33;;;;;;;;;;;;;;;5.53;100.00;100128.75;5015676;28;19921;-88
2023/01/06 15:47:18;;;;;;;;;;;;;;;5.50;100.00;100128.81;5017053;28;20011;-93
2023/01/06 15:49:52;;;;;;;;;;;;;;;5.47;100.00;100126.22;5015600;28;19937;-85
2023/01/06 15:52:24;;;;;;;;;;;;;;;5.49;100.00;100127.09;5016591;28;19957;-88
2023/01/06 15:54:50;;;;;;;;;;;;;;;5.49;100.00;100134.97;5016840;28;19913;-94
2023/01/06 15:57:16;;;;;;;;;;;;;;;5.51;100.00;100130.56;5015553;28;20345;-92
2023/01/06 15:59:41;;;;;;;;;;;;;;;5.53;100.00;100139.28;5014352;28;19913;-91
2023/01/06 16:02:15;;;;;;;;;;;;;;;5.50;100.00;100134.06;5016834;28;19918;-87
2023/01/06 16:04:42;;;;;;;;;;;;;;;5.52;100.00;100137.56;5016900;28;19924;-91
2023/01/06 16:07:26;;;;;;;;;;;;;;;5.52;100.00;100141.91;5016756;28;19925;-91
2023/01/06 16:09:51;;;;;;;;;;;;;;;5.53;100.00;100130.53;5016543;28;19979;-93
2023/01/06 16:12:20;;;;;;;;;;;;;;;5.53;100.00;100144.53;5016491;28;20372;-86
2023/01/06 16:14:48;;;;;;;;;;;;;;;5.56;100.00;100155.00;5015498;28;19960;-90
2023/01/06 16:17:29;;;;;;;;;;;;;;;5.54;100.00;100151.53;5016850;28;19917;-91
2023/01/06 16:19:59;;;;;;;;;;;;;;;5.59;100.00;100149.69;5017108;28;20364;-89
2023/01/06 16:22:24;;;;;;;;;;;;;;;5.54;100.00;100148.91;5015499;28;19968;-91
2023/01/06 16:24:50;;;;;;;;;;;;;;;5.56;100.00;100155.00;5016602;28;19922;-89
2023/01/06 16:27:21;;;;;;;;;;;;;;;5.56;100.00;100147.09;5015215;28;20296;-89
2023/01/06 16:29:46;;;;;;;;;;;;;;;5.60;100.00;100151.44;5026784;28;20360;-88
2023/01/06 16:32:28;;;;;;;;;;;;;;;5.57;100.00;100140.97;5018131;28;19963;-88
2023/01/06 16:34:54;;;;;;;;;;;;;;;5.61;100.00;100139.16;5018542;28;19921;-87
2023/01/06 16:37:20;;;;;;;;;;;;;;;5.62;100.00;100143.53;5034974;28;19940;-88
2023/01/06 16:39:45;;;;;;;;;;;;;;;5.61;100.00;100137.38;5035246;28;19924;-86
2023/01/06 16:45:00;;;;;;;;;;;;;;;5.62;100.00;100148.78;5035542;28;20119;-90
2023/01/06 16:47:25;;;;;;;;;;;;;;;5.66;100.00;100147.81;5035520;28;20311;-89
2023/01/06 16:49:50;;;;;;;;;;;;;;;5.64;100.00;100147.84;5035751;28;19917;-86
2023/01/06 16:52:15;;;;;;;;;;;;;;;5.63;100.00;100146.13;5035423;28;20380;-89
2023/01/06 16:54:41;;;;;;;;;;;;;;;5.66;100.00;100142.56;5035391;28;19918;-85
2023/01/06 16:57:08;;;;;;;;;;;;;;;5.61;100.00;100137.38;5017799;28;19924;-84
2023/01/06 16:59:34;;;;;;;;;;;;;;;5.62;100.00;100139.13;5016698;28;20391;-84
2023/01/06 17:02:01;;;;;;;;;;;;;;;5.66;100.00;100146.97;5017976;28;19917;-91
2023/01/06 17:04:26;;;;;;;;;;;;;;;5.67;100.00;100138.19;5018367;28;19917;-86
2023/01/06 17:06:51;;;;;;;;;;;;;;;5.66;100.00;100134.66;5018144;28;19924;-90
2023/01/06 17:09:20;;;;;;;;;;;;;;;5.66;100.00;100133.81;5037498;28;19925;-92
2023/01/06 17:11:47;;;;;;;;;;;;;;;5.64;100.00;100137.31;5018184;28;19978;-87
2023/01/06 17:14:13;;;;;;;;;;;;;;;5.64;100.00;100136.47;5033761;28;20008;-91
2023/01/06 17:16:40;;;;;;;;;;;;;;;5.66;100.00;100134.66;5034971;28;19983;-88
2023/01/06 17:19:14;;;;;;;;;;;;;;;5.68;100.00;100132.00;5035019;28;20000;-87
2023/01/06 17:21:40;;;;;;;;;;;;;;;5.67;100.00;100127.69;5035010;28;19952;-91
2023/01/06 17:24:08;;;;;;;;;;;;;;;5.69;100.00;100128.50;5035691;28;19964;-89
2023/01/06 17:26:52;;;;;;;;;;;;;;;5.66;100.00;100128.56;5035621;28;19971;-86
2023/01/06 17:29:18;;;;;;;;;;;;;;;5.65;100.00;100125.06;5012596;28;19921;-86
2023/01/06 17:31:44;;;;;;;;;;;;;;;5.66;100.00;100123.28;5015016;28;19936;-89
2023/01/06 17:34:17;;;;;;;;;;;;;;;5.67;100.00;100125.91;5015183;28;19913;-88
2023/01/06 17:36:44;;;;;;;;;;;;;;;5.67;100.00;100130.31;5015117;28;19964;-90
2023/01/06 17:39:29;;;;;;;;;;;;;;;5.67;100.00;100128.53;5015156;28;19986;-89
2023/01/06 17:42:06;;;;;;;;;;;;;;;5.70;100.00;100130.25;5015122;28;19920;-85
2023/01/06 17:44:40;;;;;;;;;;;;;;;5.68;100.00;100132.00;5013835;28;19917;-85
2023/01/06 17:47:11;;;;;;;;;;;;;;;5.68;100.00;100132.00;5015019;28;20012;-85
2023/01/06 17:49:37;;;;;;;;;;;;;;;5.71;100.00;100129.34;5014764;28;19964;-87
2023/01/06 17:52:20;;;;;;;;;;;;;;;5.72;100.00;100134.56;5015048;28;19921;-89
2023/01/06 17:57:36;;;;;;;;;;;;;;;5.73;100.00;100130.19;5013458;28;19964;-89
2023/01/06 18:00:13;;;;;;;;;;;;;;;5.75;100.00;100125.78;5013683;28;19924;-87
2023/01/06 18:02:45;;;;;;;;;;;;;;;5.72;100.00;100134.56;5012694;28;20361;-85
2023/01/06 18:05:23;;;;;;;;;;;;;;;5.74;100.00;100127.50;5015171;28;20008;-87
2023/01/06 18:07:49;;;;;;;;;;;;;;;5.75;100.00;100123.16;5026345;28;20032;-90
2023/01/06 18:10:16;;;;;;;;;;;;;;;5.74;100.00;100122.25;5026673;28;19972;-86
2023/01/06 18:12:44;;;;;;;;;;;;;;;5.74;100.00;100130.13;5033233;28;20673;-87
2023/01/06 18:15:27;;;;;;;;;;;;;;;5.77;100.00;100126.59;5014584;28;20368;-86
2023/01/06 18:17:54;;;;;;;;;;;;;;;5.75;100.00;100126.63;5014534;28;19971;-89
2023/01/06 18:20:20;;;;;;;;;;;;;;;5.79;100.00;100125.69;5013789;28;20000;-92
2023/01/06 18:22:45;;;;;;;;;;;;;;;5.79;100.00;100120.44;5014548;28;20510;-89
2023/01/06 18:25:28;;;;;;;;;;;;;;;5.81;100.00;100138.81;5021389;28;19940;-89
2023/01/06 18:27:53;;;;;;;;;;;;;;;5.78;100.00;100133.59;5019934;28;19967;-88
2023/01/06 18:30:21;;;;;;;;;;;;;;;5.78;100.00;100133.59;5030888;28;19925;-87
2023/01/06 18:32:48;;;;;;;;;;;;;;;5.78;100.00;100136.25;5032974;28;20451;-87
2023/01/06 18:35:20;;;;;;;;;;;;;;;5.76;100.00;100135.38;5034140;28;20295;-86
2023/01/06 18:37:45;;;;;;;;;;;;;;;5.79;100.00;100135.31;5033639;28;19917;-88
2023/01/06 18:40:12;;;;;;;;;;;;;;;5.79;100.00;100130.94;5033693;28;19924;-89
2023/01/06 18:42:44;;;;;;;;;;;;;;;5.82;100.00;100135.28;5030929;28;19917;-89
2023/01/06 18:45:17;;;;;;;;;;;;;;;5.79;100.00;100130.94;5032248;28;19996;-89
2023/01/06 18:47:43;;;;;;;;;;;;;;;5.79;100.00;100123.06;5032591;28;19917;-87
2023/01/06 18:50:28;;;;;;;;;;;;;;;5.81;100.00;100125.66;5032576;28;19924;-90
2023/01/06 18:52:55;;;;;;;;;;;;;;;5.82;100.00;100120.38;5026378;28;20063;-85
2023/01/06 18:55:24;;;;;;;;;;;;;;;5.83;100.00;100129.13;5031201;28;19928;-85
2023/01/06 18:58:16;;;;;;;;;;;;;;;5.84;100.00;100128.25;5030496;28;19925;-88
2023/01/06 19:01:02;;;;;;;;;;;;;;;5.85;100.00;100140.47;5031486;28;19923;-87
2023/01/06 19:03:30;;;;;;;;;;;;;;;5.85;100.00;100144.88;5025343;28;19918;-88
2023/01/06 19:06:07;;;;;;;;;;;;;;;5.84;100.00;100151.91;5033407;28;19918;-91
2023/01/06 19:08:33;;;;;;;;;;;;;;;5.86;100.00;100133.47;5017383;28;19944;-87
2023/01/06 19:10:58;;;;;;;;;;;;;;;5.86;100.00;100141.38;5018042;28;19922;-89
2023/01/06 19:13:26;;;;;;;;;;;;;;;5.87;100.00;100143.97;5015996;28;20463;-92
2023/01/06 19:15:52;;;;;;;;;;;;;;;5.86;100.00;100136.97;5031247;28;19925;-89
2023/01/06 19:18:18;;;;;;;;;;;;;;;5.89;100.00;100131.66;5030465;28;20316;-89
2023/01/06 19:20:44;;;;;;;;;;;;;;;5.90;100.00;100132.50;5031237;28;19925;-91
2023/01/06 19:23:16;;;;;;;;;;;;;;;5.88;100.00;100136.94;5032412;28;19924;-90
2023/01/06 19:25:45;;;;;;;;;;;;;;;5.88;100.00;100140.44;5031966;28;19925;-87
2023/01/06 19:28:14;;;;;;;;;;;;;;;5.89;100.00;100138.66;5016223;28;19944;-86
2023/01/06 19:30:41;;;;;;;;;;;;;;;5.91;100.00;100134.25;5032795;28;19921;-86
2023/01/06 19:33:18;;;;;;;;;;;;;;;5.89;100.00;100130.75;5033202;28;19924;-89
2023/01/06 19:35:44;;;;;;;;;;;;;;;5.89;100.00;100139.53;5014704;28;20012;-92
2023/01/06 19:38:23;;;;;;;;;;;;;;;5.89;100.00;100136.91;5035794;28;20007;-88
2023/01/06 19:40:48;;;;;;;;;;;;;;;5.89;100.00;100131.66;5028593;28;20015;-92
2023/01/06 19:43:15;;;;;;;;;;;;;;;5.91;100.00;100134.25;5051858;28;20359;-91
2023/01/06 19:45:41;;;;;;;;;;;;;;;5.94;100.00;100132.44;5015910;28;19963;-89
2023/01/06 19:48:15;;;;;;;;;;;;;;;5.93;100.00;100125.41;5025954;28;19951;-85
2023/01/06 19:50:40;;;;;;;;;;;;;;;5.94;100.00;100121.06;5050318;28;19921;-89
2023/01/06 19:53:18;;;;;;;;;;;;;;;5.97;100.00;100127.16;5024812;28;19921;-87
2023/01/06 19:55:43;;;;;;;;;;;;;;;5.96;100.00;100127.13;5029491;28;19932;-89
2023/01/06 19:58:25;;;;;;;;;;;;;;;5.95;100.00;100130.66;5047164;28;19921;-92
2023/01/06 20:00:53;;;;;;;;;;;;;;;5.94;100.00;100127.16;5047601;28;19917;-88
2023/01/06 20:03:18;;;;;;;;;;;;;;;5.96;100.00;100121.88;5018945;28;20071;-90
2023/01/06 20:05:43;;;;;;;;;;;;;;;5.95;100.00;100125.41;5029918;28;20039;-88
2023/01/06 20:08:08;;;;;;;;;;;;;;;5.96;100.00;100121.88;5032465;28;19920;-90
2023/01/06 20:10:34;;;;;;;;;;;;;;;5.95;100.00;100121.03;5034999;28;19924;-91
2023/01/06 20:12:59;;;;;;;;;;;;;;;5.95;100.00;100128.03;5031124;28;19917;-94
2023/01/06 20:15:27;;;;;;;;;;;;;;;5.97;100.00;100127.16;5038459;28;20338;-88
2023/01/06 20:17:52;;;;;;;;;;;;;;;5.97;100.00;100123.66;5050716;28;19917;-89
2023/01/06 20:20:17;;;;;;;;;;;;;;;5.99;100.00;100127.13;5038950;28;19924;-91
2023/01/06 20:22:43;;;;;;;;;;;;;;;6.02;100.00;100126.22;5031917;28;19925;-87
2023/01/06 20:25:08;;;;;;;;;;;;;;;6.00;100.00;100128.88;5021498;28;20003;-90
2023/01/06 20:27:34;;;;;;;;;;;;;;;5.98;100.00;100117.47;5036874;28;19924;-90
2023/01/06 20:30:00;;;;;;;;;;;;;;;6.00;100.00;100113.94;5024880;28;19932;-88
2023/01/06 20:32:25;;;;;;;;;;;;;;;6.02;100.00;100118.31;5017795;28;19921;-90
2023/01/06 20:34:50;;;;;;;;;;;;;;;6.00;100.00;100108.69;5037365;28;20007;-84
2023/01/06 20:37:15;;;;;;;;;;;;;;;6.03;100.00;100112.13;5056762;28;19917;-86
2023/01/06 20:39:41;;;;;;;;;;;;;;;6.00;100.00;100121.81;5031934;28;19928;-90
2023/01/06 20:42:06;;;;;;;;;;;;;;;6.01;100.00;100114.78;5036060;28;19917;-91
2023/01/06 20:44:31;;;;;;;;;;;;;;;6.00;100.00;100113.94;5018002;28;19985;-91
2023/01/06 20:46:56;;;;;;;;;;;;;;;6.03;100.00;100114.75;5025111;28;19948;-86